sensor_id;sensor_type;location;lat;lon;timestamp;P1;durP1;ratioP1;P2;durP2;ratioP2
43952;SDS011;29608;49.400;11.010;2022-11-20T00:01:30;4.20;;;3.90;;
43952;SDS011;29608;49.400;11.010;2022-11-20T00:03:58;6.50;;;4.15;;
43952;SDS011;29608;49.400;11.010;2022-11-20T00:06:27;5.05;;;4.50;;
43952;SDS011;29608;49.400;11.010;2022-11-20T00:08:58;4.10;;;3.70;;
43952;SDS011;29608;49.400;11.010;2022-11-20T00:11:28;4.47;;;3.92;;
43952;SDS011;29608;49.400;11.010;2022-11-20T00:13:59;4.03;;;3.72;;
43952;SDS011;29608;49.400;11.010;2022-11-20T00:16:29;4.60;;;4.20;;
43952;SDS011;29608;49.400;11.010;2022-11-20T00:21:27;3.70;;;3.40;;
43952;SDS011;29608;49.400;11.010;2022-11-20T00:23:58;4.43;;;4.03;;
43952;SDS011;29608;49.400;11.010;2022-11-20T00:26:27;3.88;;;3.47;;
43952;SDS011;29608;49.400;11.010;2022-11-20T00:28:56;4.28;;;3.97;;
43952;SDS011;29608;49.400;11.010;2022-11-20T00:31:27;4.88;;;4.38;;
43952;SDS011;29608;49.400;11.010;2022-11-20T00:33:56;4.38;;;3.97;;
43952;SDS011;29608;49.400;11.010;2022-11-20T00:36:25;4.45;;;4.05;;
43952;SDS011;29608;49.400;11.010;2022-11-20T00:41:25;3.13;;;2.88;;
43952;SDS011;29608;49.400;11.010;2022-11-20T00:43:55;4.25;;;3.85;;
43952;SDS011;29608;49.400;11.010;2022-11-20T00:46:24;3.75;;;3.45;;
43952;SDS011;29608;49.400;11.010;2022-11-20T00:48:54;4.03;;;3.63;;
43952;SDS011;29608;49.400;11.010;2022-11-20T00:51:23;4.70;;;4.30;;
43952;SDS011;29608;49.400;11.010;2022-11-20T00:53:54;3.50;;;3.20;;
43952;SDS011;29608;49.400;11.010;2022-11-20T00:56:24;4.65;;;4.15;;
43952;SDS011;29608;49.400;11.010;2022-11-20T00:58:53;3.97;;;3.30;;
43952;SDS011;29608;49.400;11.010;2022-11-20T01:01:21;4.07;;;3.67;;
43952;SDS011;29608;49.400;11.010;2022-11-20T01:03:52;3.60;;;3.30;;
43952;SDS011;29608;49.400;11.010;2022-11-20T01:06:23;4.45;;;4.05;;
43952;SDS011;29608;49.400;11.010;2022-11-20T01:08:54;4.68;;;3.53;;
43952;SDS011;29608;49.400;11.010;2022-11-20T01:11:26;4.30;;;4.00;;
43952;SDS011;29608;49.400;11.010;2022-11-20T01:13:57;4.38;;;3.97;;
43952;SDS011;29608;49.400;11.010;2022-11-20T01:16:28;5.18;;;4.40;;
43952;SDS011;29608;49.400;11.010;2022-11-20T01:21:29;3.85;;;3.40;;
43952;SDS011;29608;49.400;11.010;2022-11-20T01:23:59;4.13;;;3.83;;
43952;SDS011;29608;49.400;11.010;2022-11-20T01:26:30;3.90;;;3.60;;
43952;SDS011;29608;49.400;11.010;2022-11-20T01:29:00;4.90;;;4.35;;
43952;SDS011;29608;49.400;11.010;2022-11-20T01:31:31;4.18;;;3.78;;
43952;SDS011;29608;49.400;11.010;2022-11-20T01:34:02;4.10;;;3.55;;
43952;SDS011;29608;49.400;11.010;2022-11-20T01:36:32;5.18;;;4.28;;
43952;SDS011;29608;49.400;11.010;2022-11-20T01:39:03;4.00;;;3.35;;
43952;SDS011;29608;49.400;11.010;2022-11-20T01:41:35;3.33;;;3.08;;
43952;SDS011;29608;49.400;11.010;2022-11-20T01:44:23;4.38;;;3.97;;
43952;SDS011;29608;49.400;11.010;2022-11-20T01:47:21;4.18;;;3.65;;
43952;SDS011;29608;49.400;11.010;2022-11-20T01:49:58;5.45;;;4.95;;
43952;SDS011;29608;49.400;11.010;2022-11-20T01:52:34;3.90;;;3.22;;
43952;SDS011;29608;49.400;11.010;2022-11-20T01:55:09;4.57;;;4.18;;
43952;SDS011;29608;49.400;11.010;2022-11-20T01:57:44;4.18;;;3.78;;
43952;SDS011;29608;49.400;11.010;2022-11-20T02:00:16;4.13;;;3.60;;
43952;SDS011;29608;49.400;11.010;2022-11-20T02:02:47;3.80;;;3.50;;
43952;SDS011;29608;49.400;11.010;2022-11-20T02:05:22;3.85;;;3.55;;
43952;SDS011;29608;49.400;11.010;2022-11-20T02:08:01;4.97;;;4.07;;
43952;SDS011;29608;49.400;11.010;2022-11-20T02:10:32;3.58;;;3.33;;
43952;SDS011;29608;49.400;11.010;2022-11-20T02:13:03;3.60;;;3.30;;
43952;SDS011;29608;49.400;11.010;2022-11-20T02:15:49;4.80;;;3.53;;
43952;SDS011;29608;49.400;11.010;2022-11-20T02:18:18;3.83;;;3.42;;
43952;SDS011;29608;49.400;11.010;2022-11-20T02:20:48;4.38;;;3.97;;
43952;SDS011;29608;49.400;11.010;2022-11-20T02:23:23;3.78;;;3.47;;
43952;SDS011;29608;49.400;11.010;2022-11-20T02:26:05;4.05;;;3.70;;
43952;SDS011;29608;49.400;11.010;2022-11-20T02:28:37;3.55;;;3.22;;
43952;SDS011;29608;49.400;11.010;2022-11-20T02:31:06;3.33;;;2.90;;
43952;SDS011;29608;49.400;11.010;2022-11-20T02:33:34;3.28;;;3.03;;
43952;SDS011;29608;49.400;11.010;2022-11-20T02:36:02;3.55;;;3.25;;
43952;SDS011;29608;49.400;11.010;2022-11-20T02:38:30;3.80;;;3.50;;
43952;SDS011;29608;49.400;11.010;2022-11-20T02:40:58;4.40;;;4.00;;
43952;SDS011;29608;49.400;11.010;2022-11-20T02:43:27;3.90;;;3.60;;
43952;SDS011;29608;49.400;11.010;2022-11-20T02:45:55;3.58;;;3.33;;
43952;SDS011;29608;49.400;11.010;2022-11-20T02:48:23;3.65;;;3.30;;
43952;SDS011;29608;49.400;11.010;2022-11-20T02:50:54;4.05;;;3.65;;
43952;SDS011;29608;49.400;11.010;2022-11-20T02:53:22;3.78;;;3.47;;
43952;SDS011;29608;49.400;11.010;2022-11-20T02:55:49;3.53;;;3.22;;
43952;SDS011;29608;49.400;11.010;2022-11-20T02:58:17;3.50;;;3.20;;
43952;SDS011;29608;49.400;11.010;2022-11-20T03:00:46;4.00;;;3.60;;
43952;SDS011;29608;49.400;11.010;2022-11-20T03:03:14;3.47;;;3.22;;
43952;SDS011;29608;49.400;11.010;2022-11-20T03:05:42;4.25;;;3.85;;
43952;SDS011;29608;49.400;11.010;2022-11-20T03:08:10;3.90;;;3.60;;
43952;SDS011;29608;49.400;11.010;2022-11-20T03:10:37;3.92;;;3.53;;
43952;SDS011;29608;49.400;11.010;2022-11-20T03:13:05;3.47;;;3.17;;
43952;SDS011;29608;49.400;11.010;2022-11-20T03:15:33;4.90;;;3.25;;
43952;SDS011;29608;49.400;11.010;2022-11-20T03:18:04;3.45;;;3.15;;
43952;SDS011;29608;49.400;11.010;2022-11-20T03:20:32;3.55;;;3.25;;
43952;SDS011;29608;49.400;11.010;2022-11-20T03:23:00;3.70;;;3.40;;
43952;SDS011;29608;49.400;11.010;2022-11-20T03:25:28;3.65;;;3.35;;
43952;SDS011;29608;49.400;11.010;2022-11-20T03:27:56;3.33;;;3.13;;
43952;SDS011;29608;49.400;11.010;2022-11-20T03:30:24;3.20;;;3.00;;
43952;SDS011;29608;49.400;11.010;2022-11-20T03:32:56;3.38;;;3.08;;
43952;SDS011;29608;49.400;11.010;2022-11-20T03:35:25;3.25;;;2.95;;
43952;SDS011;29608;49.400;11.010;2022-11-20T03:37:53;3.35;;;3.05;;
43952;SDS011;29608;49.400;11.010;2022-11-20T03:40:20;3.60;;;3.30;;
43952;SDS011;29608;49.400;11.010;2022-11-20T03:42:48;3.17;;;2.92;;
43952;SDS011;29608;49.400;11.010;2022-11-20T03:45:16;3.25;;;3.05;;
43952;SDS011;29608;49.400;11.010;2022-11-20T03:47:45;3.42;;;3.15;;
43952;SDS011;29608;49.400;11.010;2022-11-20T03:50:14;3.60;;;3.30;;
43952;SDS011;29608;49.400;11.010;2022-11-20T03:52:43;2.97;;;2.78;;
43952;SDS011;29608;49.400;11.010;2022-11-20T03:55:11;3.00;;;2.70;;
43952;SDS011;29608;49.400;11.010;2022-11-20T03:57:39;3.03;;;2.83;;
43952;SDS011;29608;49.400;11.010;2022-11-20T04:00:07;3.25;;;3.05;;
43952;SDS011;29608;49.400;11.010;2022-11-20T04:02:36;3.15;;;2.95;;
43952;SDS011;29608;49.400;11.010;2022-11-20T04:05:04;3.53;;;3.28;;
43952;SDS011;29608;49.400;11.010;2022-11-20T04:07:33;3.25;;;2.95;;
43952;SDS011;29608;49.400;11.010;2022-11-20T04:10:03;2.95;;;2.75;;
43952;SDS011;29608;49.400;11.010;2022-11-20T04:12:32;3.03;;;2.83;;
43952;SDS011;29608;49.400;11.010;2022-11-20T04:15:00;3.30;;;3.03;;
43952;SDS011;29608;49.400;11.010;2022-11-20T04:17:28;3.38;;;3.08;;
43952;SDS011;29608;49.400;11.010;2022-11-20T04:19:56;3.33;;;3.08;;
43952;SDS011;29608;49.400;11.010;2022-11-20T04:22:24;3.08;;;2.80;;
43952;SDS011;29608;49.400;11.010;2022-11-20T04:24:52;3.03;;;2.83;;
43952;SDS011;29608;49.400;11.010;2022-11-20T04:27:21;3.17;;;2.97;;
43952;SDS011;29608;49.400;11.010;2022-11-20T04:29:49;3.28;;;2.97;;
43952;SDS011;29608;49.400;11.010;2022-11-20T04:32:16;2.90;;;2.70;;
43952;SDS011;29608;49.400;11.010;2022-11-20T04:34:44;2.92;;;2.72;;
43952;SDS011;29608;49.400;11.010;2022-11-20T04:37:12;2.67;;;2.55;;
43952;SDS011;29608;49.400;11.010;2022-11-20T04:39:40;4.30;;;2.97;;
43952;SDS011;29608;49.400;11.010;2022-11-20T04:42:08;2.97;;;2.78;;
43952;SDS011;29608;49.400;11.010;2022-11-20T04:44:56;3.22;;;3.00;;
43952;SDS011;29608;49.400;11.010;2022-11-20T04:47:25;3.60;;;3.30;;
43952;SDS011;29608;49.400;11.010;2022-11-20T04:49:52;3.35;;;3.08;;
43952;SDS011;29608;49.400;11.010;2022-11-20T04:52:20;2.58;;;2.38;;
43952;SDS011;29608;49.400;11.010;2022-11-20T04:54:48;3.17;;;2.90;;
43952;SDS011;29608;49.400;11.010;2022-11-20T04:57:19;2.97;;;2.78;;
43952;SDS011;29608;49.400;11.010;2022-11-20T04:59:47;2.85;;;2.65;;
43952;SDS011;29608;49.400;11.010;2022-11-20T05:02:16;2.90;;;2.70;;
43952;SDS011;29608;49.400;11.010;2022-11-20T05:04:44;2.72;;;2.53;;
43952;SDS011;29608;49.400;11.010;2022-11-20T05:07:12;2.95;;;2.75;;
43952;SDS011;29608;49.400;11.010;2022-11-20T05:09:40;2.78;;;2.58;;
43952;SDS011;29608;49.400;11.010;2022-11-20T05:12:08;3.38;;;3.08;;
43952;SDS011;29608;49.400;11.010;2022-11-20T05:14:36;2.72;;;2.53;;
43952;SDS011;29608;49.400;11.010;2022-11-20T05:17:04;3.83;;;3.45;;
43952;SDS011;29608;49.400;11.010;2022-11-20T05:19:33;3.15;;;2.95;;
43952;SDS011;29608;49.400;11.010;2022-11-20T05:22:01;2.75;;;2.55;;
43952;SDS011;29608;49.400;11.010;2022-11-20T05:24:29;3.15;;;2.85;;
43952;SDS011;29608;49.400;11.010;2022-11-20T05:26:56;2.92;;;2.72;;
43952;SDS011;29608;49.400;11.010;2022-11-20T05:29:24;3.10;;;2.90;;
43952;SDS011;29608;49.400;11.010;2022-11-20T05:31:52;2.78;;;2.58;;
43952;SDS011;29608;49.400;11.010;2022-11-20T05:34:20;2.95;;;2.75;;
43952;SDS011;29608;49.400;11.010;2022-11-20T05:36:49;3.30;;;2.55;;
43952;SDS011;29608;49.400;11.010;2022-11-20T05:39:17;3.13;;;2.90;;
43952;SDS011;29608;49.400;11.010;2022-11-20T05:41:45;3.67;;;3.35;;
43952;SDS011;29608;49.400;11.010;2022-11-20T05:44:33;2.97;;;2.78;;
43952;SDS011;29608;49.400;11.010;2022-11-20T05:47:01;2.92;;;2.70;;
43952;SDS011;29608;49.400;11.010;2022-11-20T05:49:29;2.88;;;2.67;;
43952;SDS011;29608;49.400;11.010;2022-11-20T05:51:58;2.80;;;2.60;;
43952;SDS011;29608;49.400;11.010;2022-11-20T05:54:26;2.88;;;2.67;;
43952;SDS011;29608;49.400;11.010;2022-11-20T05:56:53;3.30;;;3.03;;
43952;SDS011;29608;49.400;11.010;2022-11-20T05:59:21;3.00;;;2.72;;
43952;SDS011;29608;49.400;11.010;2022-11-20T06:01:49;3.25;;;2.95;;
43952;SDS011;29608;49.400;11.010;2022-11-20T06:04:17;3.08;;;2.88;;
43952;SDS011;29608;49.400;11.010;2022-11-20T06:06:44;2.70;;;2.50;;
43952;SDS011;29608;49.400;11.010;2022-11-20T06:09:13;2.92;;;2.72;;
43952;SDS011;29608;49.400;11.010;2022-11-20T06:11:41;2.80;;;2.60;;
43952;SDS011;29608;49.400;11.010;2022-11-20T06:14:09;3.45;;;2.70;;
43952;SDS011;29608;49.400;11.010;2022-11-20T06:16:37;2.90;;;2.70;;
43952;SDS011;29608;49.400;11.010;2022-11-20T06:19:04;2.75;;;2.55;;
43952;SDS011;29608;49.400;11.010;2022-11-20T06:21:32;3.20;;;2.90;;
43952;SDS011;29608;49.400;11.010;2022-11-20T06:24:00;2.95;;;2.75;;
43952;SDS011;29608;49.400;11.010;2022-11-20T06:26:29;3.13;;;2.92;;
43952;SDS011;29608;49.400;11.010;2022-11-20T06:28:58;3.05;;;2.85;;
43952;SDS011;29608;49.400;11.010;2022-11-20T06:31:26;2.88;;;2.67;;
43952;SDS011;29608;49.400;11.010;2022-11-20T06:33:54;3.03;;;2.80;;
43952;SDS011;29608;49.400;11.010;2022-11-20T06:36:22;2.97;;;2.78;;
43952;SDS011;29608;49.400;11.010;2022-11-20T06:38:50;2.63;;;2.42;;
43952;SDS011;29608;49.400;11.010;2022-11-20T06:41:18;2.75;;;2.55;;
43952;SDS011;29608;49.400;11.010;2022-11-20T06:43:49;2.20;;;2.10;;
43952;SDS011;29608;49.400;11.010;2022-11-20T06:46:18;2.88;;;2.67;;
43952;SDS011;29608;49.400;11.010;2022-11-20T06:48:47;2.75;;;2.55;;
43952;SDS011;29608;49.400;11.010;2022-11-20T06:51:16;2.80;;;2.60;;
43952;SDS011;29608;49.400;11.010;2022-11-20T06:53:44;2.90;;;2.70;;
43952;SDS011;29608;49.400;11.010;2022-11-20T06:56:12;3.03;;;2.75;;
43952;SDS011;29608;49.400;11.010;2022-11-20T06:58:40;2.95;;;2.75;;
43952;SDS011;29608;49.400;11.010;2022-11-20T07:01:10;2.42;;;2.22;;
43952;SDS011;29608;49.400;11.010;2022-11-20T07:03:40;3.30;;;3.10;;
43952;SDS011;29608;49.400;11.010;2022-11-20T07:06:09;2.88;;;2.67;;
43952;SDS011;29608;49.400;11.010;2022-11-20T07:08:37;2.70;;;2.50;;
43952;SDS011;29608;49.400;11.010;2022-11-20T07:11:05;2.22;;;2.13;;
43952;SDS011;29608;49.400;11.010;2022-11-20T07:13:34;2.40;;;2.30;;
43952;SDS011;29608;49.400;11.010;2022-11-20T07:16:03;2.15;;;2.05;;
43952;SDS011;29608;49.400;11.010;2022-11-20T07:18:35;2.47;;;2.28;;
43952;SDS011;29608;49.400;11.010;2022-11-20T07:21:03;2.42;;;2.22;;
43952;SDS011;29608;49.400;11.010;2022-11-20T07:26:02;1.88;;;1.77;;
43952;SDS011;29608;49.400;11.010;2022-11-20T07:28:31;2.42;;;2.28;;
43952;SDS011;29608;49.400;11.010;2022-11-20T07:31:00;2.55;;;2.35;;
43952;SDS011;29608;49.400;11.010;2022-11-20T07:33:28;5.03;;;2.67;;
43952;SDS011;29608;49.400;11.010;2022-11-20T07:35:59;2.65;;;2.45;;
43952;SDS011;29608;49.400;11.010;2022-11-20T07:38:27;2.78;;;2.58;;
43952;SDS011;29608;49.400;11.010;2022-11-20T07:40:55;2.90;;;2.70;;
43952;SDS011;29608;49.400;11.010;2022-11-20T07:43:24;3.10;;;2.78;;
43952;SDS011;29608;49.400;11.010;2022-11-20T07:45:54;3.85;;;2.50;;
43952;SDS011;29608;49.400;11.010;2022-11-20T07:48:23;2.65;;;2.50;;
43952;SDS011;29608;49.400;11.010;2022-11-20T07:50:52;6.40;;;3.03;;
43952;SDS011;29608;49.400;11.010;2022-11-20T07:53:22;2.45;;;2.25;;
43952;SDS011;29608;49.400;11.010;2022-11-20T07:55:50;3.28;;;2.33;;
43952;SDS011;29608;49.400;11.010;2022-11-20T07:58:19;3.63;;;2.17;;
43952;SDS011;29608;49.400;11.010;2022-11-20T08:00:47;2.25;;;2.08;;
43952;SDS011;29608;49.400;11.010;2022-11-20T08:03:15;2.65;;;2.20;;
43952;SDS011;29608;49.400;11.010;2022-11-20T08:05:49;2.60;;;2.40;;
43952;SDS011;29608;49.400;11.010;2022-11-20T08:08:17;2.78;;;2.58;;
43952;SDS011;29608;49.400;11.010;2022-11-20T08:10:46;2.00;;;1.90;;
43952;SDS011;29608;49.400;11.010;2022-11-20T08:13:14;1.98;;;1.80;;
43952;SDS011;29608;49.400;11.010;2022-11-20T08:15:59;2.10;;;2.00;;
43952;SDS011;29608;49.400;11.010;2022-11-20T08:18:27;2.58;;;2.38;;
43952;SDS011;29608;49.400;11.010;2022-11-20T08:20:57;2.67;;;2.47;;
43952;SDS011;29608;49.400;11.010;2022-11-20T08:23:29;2.10;;;2.00;;
43952;SDS011;29608;49.400;11.010;2022-11-20T08:25:58;4.18;;;2.70;;
43952;SDS011;29608;49.400;11.010;2022-11-20T08:28:26;2.63;;;2.40;;
43952;SDS011;29608;49.400;11.010;2022-11-20T08:30:57;2.03;;;1.92;;
43952;SDS011;29608;49.400;11.010;2022-11-20T08:33:26;2.28;;;2.13;;
43952;SDS011;29608;49.400;11.010;2022-11-20T08:35:57;2.25;;;2.15;;
43952;SDS011;29608;49.400;11.010;2022-11-20T08:38:27;2.42;;;2.22;;
43952;SDS011;29608;49.400;11.010;2022-11-20T08:40:56;2.03;;;1.92;;
43952;SDS011;29608;49.400;11.010;2022-11-20T08:43:43;2.95;;;2.03;;
43952;SDS011;29608;49.400;11.010;2022-11-20T08:46:11;2.40;;;2.20;;
43952;SDS011;29608;49.400;11.010;2022-11-20T08:48:43;2.33;;;2.13;;
43952;SDS011;29608;49.400;11.010;2022-11-20T08:51:11;3.45;;;2.03;;
43952;SDS011;29608;49.400;11.010;2022-11-20T08:53:40;2.05;;;1.85;;
43952;SDS011;29608;49.400;11.010;2022-11-20T08:56:10;1.95;;;1.85;;
43952;SDS011;29608;49.400;11.010;2022-11-20T08:58:38;1.85;;;1.75;;
43952;SDS011;29608;49.400;11.010;2022-11-20T09:01:27;2.03;;;1.92;;
43952;SDS011;29608;49.400;11.010;2022-11-20T09:03:56;2.17;;;2.08;;
43952;SDS011;29608;49.400;11.010;2022-11-20T09:06:25;1.88;;;1.77;;
43952;SDS011;29608;49.400;11.010;2022-11-20T09:08:53;2.25;;;2.05;;
43952;SDS011;29608;49.400;11.010;2022-11-20T09:11:22;2.25;;;1.80;;
43952;SDS011;29608;49.400;11.010;2022-11-20T09:13:51;2.30;;;2.10;;
43952;SDS011;29608;49.400;11.010;2022-11-20T09:16:18;2.20;;;2.00;;
43952;SDS011;29608;49.400;11.010;2022-11-20T09:18:46;2.42;;;2.25;;
43952;SDS011;29608;49.400;11.010;2022-11-20T09:21:36;2.38;;;2.03;;
43952;SDS011;29608;49.400;11.010;2022-11-20T09:24:05;2.92;;;1.98;;
43952;SDS011;29608;49.400;11.010;2022-11-20T09:26:34;2.45;;;1.98;;
43952;SDS011;29608;49.400;11.010;2022-11-20T09:29:02;4.65;;;1.92;;
43952;SDS011;29608;49.400;11.010;2022-11-20T09:31:30;1.83;;;1.73;;
43952;SDS011;29608;49.400;11.010;2022-11-20T09:33:58;1.70;;;1.60;;
43952;SDS011;29608;49.400;11.010;2022-11-20T09:36:25;1.70;;;1.60;;
43952;SDS011;29608;49.400;11.010;2022-11-20T09:38:53;2.03;;;1.92;;
43952;SDS011;29608;49.400;11.010;2022-11-20T09:41:32;3.17;;;1.95;;
43952;SDS011;29608;49.400;11.010;2022-11-20T09:44:27;2.00;;;1.90;;
43952;SDS011;29608;49.400;11.010;2022-11-20T09:47:26;2.03;;;1.92;;
43952;SDS011;29608;49.400;11.010;2022-11-20T09:50:15;2.47;;;1.92;;
43952;SDS011;29608;49.400;11.010;2022-11-20T09:52:56;2.58;;;1.92;;
43952;SDS011;29608;49.400;11.010;2022-11-20T09:55:39;3.97;;;1.70;;
43952;SDS011;29608;49.400;11.010;2022-11-20T09:58:12;4.10;;;1.95;;
43952;SDS011;29608;49.400;11.010;2022-11-20T10:00:46;2.88;;;1.90;;
43952;SDS011;29608;49.400;11.010;2022-11-20T10:03:16;2.38;;;2.13;;
43952;SDS011;29608;49.400;11.010;2022-11-20T10:05:54;3.30;;;1.85;;
43952;SDS011;29608;49.400;11.010;2022-11-20T10:08:24;2.10;;;1.55;;
43952;SDS011;29608;49.400;11.010;2022-11-20T10:11:00;2.10;;;1.92;;
43952;SDS011;29608;49.400;11.010;2022-11-20T10:13:42;4.03;;;2.25;;
43952;SDS011;29608;49.400;11.010;2022-11-20T10:16:27;1.60;;;1.50;;
43952;SDS011;29608;49.400;11.010;2022-11-20T10:19:14;2.00;;;1.58;;
43952;SDS011;29608;49.400;11.010;2022-11-20T10:22:04;2.00;;;1.90;;
43952;SDS011;29608;49.400;11.010;2022-11-20T10:24:48;4.55;;;1.85;;
43952;SDS011;29608;49.400;11.010;2022-11-20T10:27:29;3.03;;;1.65;;
43952;SDS011;29608;49.400;11.010;2022-11-20T10:30:14;2.17;;;1.65;;
43952;SDS011;29608;49.400;11.010;2022-11-20T10:32:44;3.13;;;1.77;;
43952;SDS011;29608;49.400;11.010;2022-11-20T10:35:20;2.25;;;2.10;;
43952;SDS011;29608;49.400;11.010;2022-11-20T10:37:54;3.95;;;2.05;;
43952;SDS011;29608;49.400;11.010;2022-11-20T10:40:28;1.80;;;1.70;;
43952;SDS011;29608;49.400;11.010;2022-11-20T10:43:04;4.93;;;2.10;;
43952;SDS011;29608;49.400;11.010;2022-11-20T10:45:45;2.53;;;1.65;;
43952;SDS011;29608;49.400;11.010;2022-11-20T10:48:21;1.73;;;1.63;;
43952;SDS011;29608;49.400;11.010;2022-11-20T10:51:00;1.77;;;1.67;;
43952;SDS011;29608;49.400;11.010;2022-11-20T10:53:42;1.75;;;1.65;;
43952;SDS011;29608;49.400;11.010;2022-11-20T10:56:21;1.83;;;1.73;;
43952;SDS011;29608;49.400;11.010;2022-11-20T10:59:00;1.60;;;1.50;;
43952;SDS011;29608;49.400;11.010;2022-11-20T11:01:56;1.80;;;1.70;;
43952;SDS011;29608;49.400;11.010;2022-11-20T11:04:33;2.55;;;1.38;;
43952;SDS011;29608;49.400;11.010;2022-11-20T11:07:08;1.77;;;1.50;;
43952;SDS011;29608;49.400;11.010;2022-11-20T11:09:43;1.50;;;1.50;;
43952;SDS011;29608;49.400;11.010;2022-11-20T11:12:14;1.30;;;1.20;;
43952;SDS011;29608;49.400;11.010;2022-11-20T11:14:43;1.70;;;1.60;;
43952;SDS011;29608;49.400;11.010;2022-11-20T11:17:22;1.40;;;1.30;;
43952;SDS011;29608;49.400;11.010;2022-11-20T11:19:58;1.70;;;1.60;;
43952;SDS011;29608;49.400;11.010;2022-11-20T11:22:29;1.40;;;1.30;;
43952;SDS011;29608;49.400;11.010;2022-11-20T11:24:59;1.25;;;1.15;;
43952;SDS011;29608;49.400;11.010;2022-11-20T11:27:28;1.08;;;1.08;;
43952;SDS011;29608;49.400;11.010;2022-11-20T11:30:11;1.42;;;1.33;;
43952;SDS011;29608;49.400;11.010;2022-11-20T11:32:43;2.65;;;1.35;;
43952;SDS011;29608;49.400;11.010;2022-11-20T11:35:21;1.50;;;1.40;;
43952;SDS011;29608;49.400;11.010;2022-11-20T11:37:53;1.63;;;1.50;;
43952;SDS011;29608;49.400;11.010;2022-11-20T11:40:31;1.70;;;1.60;;
43952;SDS011;29608;49.400;11.010;2022-11-20T11:43:02;1.30;;;1.30;;
43952;SDS011;29608;49.400;11.010;2022-11-20T11:46:02;1.27;;;1.27;;
43952;SDS011;29608;49.400;11.010;2022-11-20T11:48:37;1.92;;;1.38;;
43952;SDS011;29608;49.400;11.010;2022-11-20T11:51:07;1.80;;;1.70;;
43952;SDS011;29608;49.400;11.010;2022-11-20T11:56:08;1.30;;;1.30;;
43952;SDS011;29608;49.400;11.010;2022-11-20T11:58:41;1.70;;;1.60;;
43952;SDS011;29608;49.400;11.010;2022-11-20T12:01:20;1.27;;;1.25;;
43952;SDS011;29608;49.400;11.010;2022-11-20T12:04:02;1.13;;;1.13;;
43952;SDS011;29608;49.400;11.010;2022-11-20T12:06:46;1.30;;;1.23;;
43952;SDS011;29608;49.400;11.010;2022-11-20T12:09:20;2.45;;;1.60;;
43952;SDS011;29608;49.400;11.010;2022-11-20T12:12:04;2.13;;;1.55;;
43952;SDS011;29608;49.400;11.010;2022-11-20T12:14:40;2.65;;;1.35;;
43952;SDS011;29608;49.400;11.010;2022-11-20T12:17:13;1.20;;;1.20;;
43952;SDS011;29608;49.400;11.010;2022-11-20T12:19:43;2.80;;;1.27;;
43952;SDS011;29608;49.400;11.010;2022-11-20T12:22:13;1.90;;;1.80;;
43952;SDS011;29608;49.400;11.010;2022-11-20T12:25:04;1.45;;;1.35;;
43952;SDS011;29608;49.400;11.010;2022-11-20T12:27:43;1.75;;;1.38;;
43952;SDS011;29608;49.400;11.010;2022-11-20T12:30:36;1.58;;;1.48;;
43952;SDS011;29608;49.400;11.010;2022-11-20T12:33:20;1.60;;;1.50;;
43952;SDS011;29608;49.400;11.010;2022-11-20T12:36:12;1.92;;;1.83;;
43952;SDS011;29608;49.400;11.010;2022-11-20T12:38:58;1.42;;;1.33;;
43952;SDS011;29608;49.400;11.010;2022-11-20T12:42:16;1.35;;;1.25;;
43952;SDS011;29608;49.400;11.010;2022-11-20T12:45:25;1.70;;;1.60;;
43952;SDS011;29608;49.400;11.010;2022-11-20T12:48:17;1.30;;;1.20;;
43952;SDS011;29608;49.400;11.010;2022-11-20T12:54:30;1.58;;;1.10;;
43952;SDS011;29608;49.400;11.010;2022-11-20T12:57:18;1.40;;;1.30;;
43952;SDS011;29608;49.400;11.010;2022-11-20T12:59:57;1.70;;;1.60;;
43952;SDS011;29608;49.400;11.010;2022-11-20T13:02:41;5.57;;;1.70;;
43952;SDS011;29608;49.400;11.010;2022-11-20T13:05:37;1.50;;;1.40;;
43952;SDS011;29608;49.400;11.010;2022-11-20T13:08:20;1.10;;;1.10;;
43952;SDS011;29608;49.400;11.010;2022-11-20T13:10:55;1.40;;;1.30;;
43952;SDS011;29608;49.400;11.010;2022-11-20T13:13:33;1.50;;;1.40;;
43952;SDS011;29608;49.400;11.010;2022-11-20T13:16:18;1.52;;;1.42;;
43952;SDS011;29608;49.400;11.010;2022-11-20T13:18:52;1.30;;;1.30;;
43952;SDS011;29608;49.400;11.010;2022-11-20T13:21:21;1.95;;;1.55;;
43952;SDS011;29608;49.400;11.010;2022-11-20T13:24:07;1.52;;;1.42;;
43952;SDS011;29608;49.400;11.010;2022-11-20T13:27:02;1.58;;;1.48;;
43952;SDS011;29608;49.400;11.010;2022-11-20T13:32:06;1.50;;;1.40;;
43952;SDS011;29608;49.400;11.010;2022-11-20T13:34:51;1.42;;;1.33;;
43952;SDS011;29608;49.400;11.010;2022-11-20T13:37:24;1.38;;;1.27;;
43952;SDS011;29608;49.400;11.010;2022-11-20T13:40:10;1.52;;;1.42;;
43952;SDS011;29608;49.400;11.010;2022-11-20T13:42:54;1.55;;;1.45;;
43952;SDS011;29608;49.400;11.010;2022-11-20T13:45:29;1.45;;;1.35;;
43952;SDS011;29608;49.400;11.010;2022-11-20T13:48:01;3.50;;;1.70;;
43952;SDS011;29608;49.400;11.010;2022-11-20T13:50:39;1.48;;;1.35;;
43952;SDS011;29608;49.400;11.010;2022-11-20T13:53:19;1.60;;;1.50;;
43952;SDS011;29608;49.400;11.010;2022-11-20T13:56:08;1.40;;;1.30;;
43952;SDS011;29608;49.400;11.010;2022-11-20T13:58:52;1.42;;;1.35;;
43952;SDS011;29608;49.400;11.010;2022-11-20T14:01:39;3.40;;;1.38;;
43952;SDS011;29608;49.400;11.010;2022-11-20T14:04:12;1.60;;;1.50;;
43952;SDS011;29608;49.400;11.010;2022-11-20T14:06:47;1.38;;;1.27;;
43952;SDS011;29608;49.400;11.010;2022-11-20T14:09:24;3.42;;;1.75;;
43952;SDS011;29608;49.400;11.010;2022-11-20T14:11:55;1.40;;;1.30;;
43952;SDS011;29608;49.400;11.010;2022-11-20T14:14:24;1.48;;;1.38;;
43952;SDS011;29608;49.400;11.010;2022-11-20T14:17:04;1.57;;;1.47;;
43952;SDS011;29608;49.400;11.010;2022-11-20T14:19:33;1.33;;;1.23;;
43952;SDS011;29608;49.400;11.010;2022-11-20T14:22:07;2.33;;;1.48;;
43952;SDS011;29608;49.400;11.010;2022-11-20T14:24:42;1.40;;;1.30;;
43952;SDS011;29608;49.400;11.010;2022-11-20T14:27:13;2.15;;;1.52;;
43952;SDS011;29608;49.400;11.010;2022-11-20T14:29:44;1.92;;;1.70;;
43952;SDS011;29608;49.400;11.010;2022-11-20T14:32:15;2.17;;;1.65;;
43952;SDS011;29608;49.400;11.010;2022-11-20T14:34:45;1.35;;;1.25;;
43952;SDS011;29608;49.400;11.010;2022-11-20T14:37:17;1.20;;;1.20;;
43952;SDS011;29608;49.400;11.010;2022-11-20T14:39:51;3.50;;;1.88;;
43952;SDS011;29608;49.400;11.010;2022-11-20T14:42:22;1.53;;;1.43;;
43952;SDS011;29608;49.400;11.010;2022-11-20T14:44:54;1.70;;;1.20;;
43952;SDS011;29608;49.400;11.010;2022-11-20T14:47:24;1.80;;;1.20;;
43952;SDS011;29608;49.400;11.010;2022-11-20T14:49:56;2.47;;;1.70;;
43952;SDS011;29608;49.400;11.010;2022-11-20T14:52:32;1.50;;;1.40;;
43952;SDS011;29608;49.400;11.010;2022-11-20T14:55:00;2.13;;;1.55;;
43952;SDS011;29608;49.400;11.010;2022-11-20T14:57:30;1.45;;;1.35;;
43952;SDS011;29608;49.400;11.010;2022-11-20T15:00:04;1.98;;;1.35;;
43952;SDS011;29608;49.400;11.010;2022-11-20T15:02:46;4.10;;;1.60;;
43952;SDS011;29608;49.400;11.010;2022-11-20T15:05:15;2.95;;;1.67;;
43952;SDS011;29608;49.400;11.010;2022-11-20T15:07:46;1.88;;;1.40;;
43952;SDS011;29608;49.400;11.010;2022-11-20T15:10:20;1.80;;;1.52;;
43952;SDS011;29608;49.400;11.010;2022-11-20T15:12:53;1.10;;;1.10;;
43952;SDS011;29608;49.400;11.010;2022-11-20T15:15:25;1.42;;;1.33;;
43952;SDS011;29608;49.400;11.010;2022-11-20T15:17:58;2.17;;;1.30;;
43952;SDS011;29608;49.400;11.010;2022-11-20T15:20:27;1.05;;;1.05;;
43952;SDS011;29608;49.400;11.010;2022-11-20T15:22:59;6.40;;;1.50;;
43952;SDS011;29608;49.400;11.010;2022-11-20T15:25:27;1.50;;;1.40;;